Lynn, Alabama
Current Conditions -  °F | °C
As of 10:56 PM on Friday 19 Dec 2014 (Local Time) from K1M4 Reporting Station
Broken Clouds Broken Clouds  
Wind Chill: 35°   Ceiling: 4900
Heat Index: 35°   Visibility: 9mi
Dew Point: 33°   Wind: 0mph
Humidity: 92%   Direction: NA
Pressure: 30.21"   Gusts: NA
Location:  34.05°N, 87.55°W
Report Text: K1M4 200456Z AUTO 00000KT 9SM SCT039 BKN049 BKN055 02/01 A3021 RMK AO2 T00160005 400550016 BKN V SCT RAB0358E00 P0001 SLP239 $
Loading
Personal Weather Stations






























Interactive Weather Map New forecast layout! Learn more

10-Day Weather Forecast

Advertisements
Track Severe Weather on mobile